Inicio METAR Ruta Wind Satelite

Informe Meteorológico

Fecha: 2024/05/29 01:34:06 Local
2024.05.29 06:34 UTC


Operación:
SKPE 290600Z AUTO 09006KT 040V110 9999NDV // OVC026/// 21/18 Q1018 =

SKPE 290500Z 11006KT 9999 FEW018 BKN080 21/18 Q1019
SKPE 290400Z 11008KT 9999 FEW018 BKN080 21/18 Q1019
SKPE 290300Z 10007KT 060V140 9999 FEW018 BKN080 21/18 Q1018
SKPE 290200Z 10006KT 040V140 9999 SCT018 SCT080 21/19 Q1018
SKPE 290100Z 11009KT 9999 FEW018 SCT080 21/18 Q1017 REDZ

2024/05/29 06:36
TAF SKPE 290430Z 2906/3006 11007KT 9999 SCT017 PROB40 2911/2915 3000 BCFG BKN012
TEMPO 2918/2921 SCT017TCU
TEMPO 2921/2924 TS SCT017CB
TEMPO 3001/3005 10010KT TX28/2920Z TN20/2910Z